Time;durP1;ratioP1;P1;durP2;ratioP2;P2;SDS_P1;SDS_P2;PMS_P1;PMS_P2;Temp;Humidity;BMP_temperature;BMP_pressure;BME280_temperature;BME280_humidity;BME280_pressure;Samples;Min_cycle;Max_cycle;Signal;HPM_P1;HPM_P2
2022/03/12 00:01:42;;;;;;;16.15;8.73;;;4.00;43.10;;;;;;5033202;28;20061;-65
2022/03/12 00:04:07;;;;;;;17.15;9.07;;;4.00;43.20;;;;;;5031732;28;20567;-64
2022/03/12 00:06:34;;;;;;;13.13;7.43;;;4.00;43.30;;;;;;5033396;28;20107;-64
2022/03/12 00:08:59;;;;;;;20.00;10.45;;;3.90;43.20;;;;;;5034544;28;20029;-65
2022/03/12 00:11:30;;;;;;;16.25;9.38;;;3.90;43.30;;;;;;5027823;28;20033;-65
2022/03/12 00:14:00;;;;;;;15.43;8.52;;;3.90;43.50;;;;;;5028095;28;20076;-65
2022/03/12 00:16:27;;;;;;;16.40;8.88;;;3.80;43.40;;;;;;5013253;28;20049;-65
2022/03/12 00:18:58;;;;;;;18.52;9.05;;;3.80;43.60;;;;;;5015747;28;20037;-65
2022/03/12 00:21:25;;;;;;;15.13;7.95;;;3.80;43.50;;;;;;5033303;28;20460;-65
2022/03/12 00:23:53;;;;;;;15.70;8.00;;;3.80;43.50;;;;;;5031029;28;20782;-65
2022/03/12 00:26:23;;;;;;;18.00;8.80;;;3.80;43.70;;;;;;5032157;28;20559;-65
2022/03/12 00:28:50;;;;;;;14.27;8.40;;;3.80;43.80;;;;;;5030246;28;20034;-65
2022/03/12 00:31:15;;;;;;;18.58;8.48;;;3.70;43.80;;;;;;5013384;28;20444;-65
2022/03/12 00:33:41;;;;;;;17.40;9.60;;;3.70;43.80;;;;;;5026925;28;20021;-64
2022/03/12 00:36:07;;;;;;;16.25;9.30;;;3.70;44.00;;;;;;5013100;28;20105;-65
2022/03/12 00:38:33;;;;;;;15.77;8.73;;;3.70;44.20;;;;;;5024676;28;20087;-64
2022/03/12 00:41:01;;;;;;;17.70;9.52;;;3.70;44.30;;;;;;5031808;28;20025;-64
2022/03/12 00:43:27;;;;;;;16.33;9.45;;;3.60;44.30;;;;;;5031684;28;20061;-64
2022/03/12 00:45:52;;;;;;;17.77;9.18;;;3.60;44.20;;;;;;5031218;28;20444;-64
2022/03/12 00:48:18;;;;;;;18.27;9.77;;;3.60;44.20;;;;;;5033027;28;20025;-63
2022/03/12 00:50:43;;;;;;;19.75;10.15;;;3.60;44.30;;;;;;5031018;28;20030;-64
2022/03/12 00:53:09;;;;;;;17.20;9.85;;;3.60;44.50;;;;;;5032411;28;20021;-64
2022/03/12 00:55:35;;;;;;;16.83;9.93;;;3.50;44.40;;;;;;5015872;28;20125;-64
2022/03/12 00:58:01;;;;;;;18.73;9.77;;;3.50;44.50;;;;;;5032565;28;20132;-64
2022/03/12 01:00:26;;;;;;;17.52;10.23;;;3.50;44.60;;;;;;5030436;28;20536;-66
2022/03/12 01:02:53;;;;;;;19.77;9.77;;;3.50;44.60;;;;;;5031970;28;20045;-64
2022/03/12 01:05:23;;;;;;;19.08;10.20;;;3.50;44.80;;;;;;5029674;28;20091;-64
2022/03/12 01:07:50;;;;;;;19.45;9.20;;;3.50;44.80;;;;;;5032195;28;20559;-64
2022/03/12 01:10:15;;;;;;;21.08;10.25;;;3.40;44.80;;;;;;5016396;28;20061;-64
2022/03/12 01:12:43;;;;;;;20.00;9.98;;;3.40;45.10;;;;;;5021295;28;20103;-64
2022/03/12 01:15:10;;;;;;;18.88;10.45;;;3.40;45.10;;;;;;5030187;28;20032;-64
2022/03/12 01:17:36;;;;;;;18.98;9.68;;;3.40;45.00;;;;;;5021967;28;20094;-64
2022/03/12 01:20:04;;;;;;;16.30;10.10;;;3.40;45.30;;;;;;5023924;28;20116;-65
2022/03/12 01:22:35;;;;;;;17.40;9.35;;;3.40;45.30;;;;;;5015664;28;20041;-64
2022/03/12 01:25:02;;;;;;;16.95;9.73;;;3.40;45.40;;;;;;5030877;28;20042;-65
2022/03/12 01:27:28;;;;;;;19.30;10.00;;;3.30;45.30;;;;;;5031798;28;20025;-65
2022/03/12 01:29:53;;;;;;;17.88;9.27;;;3.30;45.70;;;;;;5019786;28;20528;-65
2022/03/12 01:32:19;;;;;;;15.63;8.25;;;3.30;45.50;;;;;;5024193;28;20083;-64
2022/03/12 01:34:44;;;;;;;16.95;9.30;;;3.30;45.90;;;;;;5029439;28;20701;-64
2022/03/12 01:37:10;;;;;;;16.60;8.20;;;3.20;45.90;;;;;;5030716;28;20038;-65
2022/03/12 01:39:35;;;;;;;15.82;8.50;;;3.30;45.70;;;;;;5022162;28;20470;-64
2022/03/12 01:42:06;;;;;;;16.55;9.30;;;3.20;45.80;;;;;;5023162;28;20527;-64
2022/03/12 01:44:31;;;;;;;14.35;8.52;;;3.20;45.70;;;;;;5029771;28;20034;-65
2022/03/12 01:46:57;;;;;;;20.23;9.75;;;3.20;45.90;;;;;;5031787;28;20472;-65
2022/03/12 01:49:23;;;;;;;16.90;8.65;;;3.10;45.80;;;;;;5029482;28;20067;-65
2022/03/12 01:51:51;;;;;;;19.13;8.95;;;3.10;45.80;;;;;;5030812;28;20362;-65
2022/03/12 01:54:39;;;;;;;18.13;8.77;;;3.10;46.00;;;;;;5037699;28;20494;-65
2022/03/12 01:57:04;;;;;;;14.82;8.52;;;3.00;46.10;;;;;;5051498;28;20029;-65
2022/03/12 01:59:30;;;;;;;15.27;8.88;;;3.00;46.10;;;;;;5048478;28;20648;-64
2022/03/12 02:01:57;;;;;;;19.98;9.45;;;3.00;46.10;;;;;;5032847;28;20021;-65
2022/03/12 02:04:23;;;;;;;15.13;8.63;;;2.90;46.30;;;;;;5022339;28;20046;-66
2022/03/12 02:06:50;;;;;;;18.20;9.73;;;2.90;46.40;;;;;;5015177;28;20477;-64
2022/03/12 02:09:17;;;;;;;16.33;8.70;;;2.90;46.60;;;;;;5029856;28;20018;-65
2022/03/12 02:11:47;;;;;;;18.27;8.80;;;2.80;46.50;;;;;;5031234;28;20045;-64
2022/03/12 02:14:15;;;;;;;15.13;8.27;;;2.90;46.60;;;;;;5029029;28;20142;-65
2022/03/12 02:16:48;;;;;;;18.75;9.20;;;2.80;46.80;;;;;;5019581;28;20034;-64
2022/03/12 02:19:14;;;;;;;18.13;9.10;;;2.80;46.90;;;;;;5024010;28;20110;-64
2022/03/12 02:21:49;;;;;;;19.40;9.98;;;2.80;46.90;;;;;;5029508;28;20120;-64
2022/03/12 02:24:17;;;;;;;17.58;9.57;;;2.80;47.10;;;;;;5030264;28;20033;-65
2022/03/12 02:26:44;;;;;;;21.48;9.43;;;2.80;47.20;;;;;;5050747;28;20070;-65
2022/03/12 02:29:12;;;;;;;14.38;8.85;;;2.80;47.10;;;;;;5045794;28;20030;-64
2022/03/12 02:31:40;;;;;;;19.00;9.55;;;2.80;47.00;;;;;;5010661;28;20481;-65
2022/03/12 02:34:07;;;;;;;20.45;9.32;;;2.70;47.10;;;;;;5011054;28;20042;-64
2022/03/12 02:36:32;;;;;;;19.98;9.90;;;2.70;47.10;;;;;;5030918;28;20492;-64
2022/03/12 02:39:01;;;;;;;17.70;8.68;;;2.70;47.20;;;;;;5030189;28;20155;-64
2022/03/12 02:41:26;;;;;;;17.75;9.18;;;2.80;47.30;;;;;;5030571;28;20036;-64
2022/03/12 02:43:52;;;;;;;19.30;9.65;;;2.70;47.20;;;;;;5031068;28;20037;-65
2022/03/12 02:46:18;;;;;;;17.17;10.05;;;2.80;47.40;;;;;;5012051;28;20045;-65
2022/03/12 02:48:50;;;;;;;16.88;8.70;;;2.70;47.40;;;;;;5021974;28;20034;-64
2022/03/12 02:51:16;;;;;;;16.25;8.93;;;2.70;47.50;;;;;;5030013;28;20493;-65
2022/03/12 02:53:43;;;;;;;17.77;9.75;;;2.60;47.40;;;;;;5030541;28;20136;-64
2022/03/12 02:56:08;;;;;;;20.83;10.68;;;2.60;47.40;;;;;;5029509;28;20044;-64
2022/03/12 02:58:34;;;;;;;20.83;10.02;;;2.60;47.50;;;;;;5030821;28;20021;-65
2022/03/12 03:01:04;;;;;;;20.02;9.40;;;2.60;47.40;;;;;;5029958;28;20021;-66
2022/03/12 03:03:37;;;;;;;23.80;9.70;;;2.60;47.40;;;;;;5029768;28;20045;-65
2022/03/12 03:06:02;;;;;;;16.35;8.82;;;2.60;48.00;;;;;;5030115;28;20048;-65
2022/03/12 03:08:28;;;;;;;16.63;9.43;;;2.60;47.50;;;;;;5030522;28;20029;-65
2022/03/12 03:10:58;;;;;;;18.00;9.32;;;2.60;47.60;;;;;;5028954;28;20041;-65
2022/03/12 03:13:34;;;;;;;19.48;8.65;;;2.60;47.60;;;;;;5029702;28;20475;-65
2022/03/12 03:16:08;;;;;;;15.77;9.48;;;2.60;47.80;;;;;;5017653;28;20029;-64
2022/03/12 03:18:38;;;;;;;19.90;10.13;;;2.60;47.90;;;;;;5028334;28;20119;-64
2022/03/12 03:21:07;;;;;;;20.30;9.60;;;2.60;47.80;;;;;;5036234;28;20030;-64
2022/03/12 03:23:32;;;;;;;17.70;9.07;;;2.50;47.90;;;;;;5033785;28;20040;-65
2022/03/12 03:26:00;;;;;;;16.52;9.55;;;2.40;47.80;;;;;;5017909;28;20034;-65
2022/03/12 03:28:26;;;;;;;19.23;8.93;;;2.50;48.00;;;;;;5028617;28;20033;-65
2022/03/12 03:30:51;;;;;;;18.30;9.45;;;2.50;47.80;;;;;;5031811;28;20048;-64
2022/03/12 03:33:20;;;;;;;18.10;10.02;;;2.50;47.90;;;;;;5031557;28;20029;-65
2022/03/12 03:35:46;;;;;;;19.50;9.45;;;2.40;47.90;;;;;;5032041;28;20037;-64
2022/03/12 03:38:13;;;;;;;17.10;8.68;;;2.40;47.80;;;;;;5033876;28;20086;-64
2022/03/12 03:40:39;;;;;;;21.90;10.73;;;2.40;47.90;;;;;;5031635;28;20068;-65
2022/03/12 03:43:11;;;;;;;17.48;9.00;;;2.40;47.90;;;;;;5033369;28;20029;-64
2022/03/12 03:45:36;;;;;;;19.30;9.35;;;2.40;48.00;;;;;;5031955;28;20382;-64
2022/03/12 03:48:02;;;;;;;20.45;9.43;;;2.40;48.00;;;;;;5033039;28;20036;-66
2022/03/12 03:50:27;;;;;;;19.42;10.02;;;2.40;48.20;;;;;;5032454;28;20141;-65
2022/03/12 03:52:56;;;;;;;18.17;8.65;;;2.40;48.10;;;;;;5033300;28;20099;-65
2022/03/12 03:55:25;;;;;;;19.30;10.70;;;2.30;48.10;;;;;;5032334;28;20041;-65
2022/03/12 03:57:53;;;;;;;17.85;10.05;;;2.30;48.20;;;;;;5033481;28;20042;-65
2022/03/12 04:00:21;;;;;;;16.60;10.63;;;2.20;48.50;;;;;;5031839;28;20041;-65
2022/03/12 04:02:47;;;;;;;20.95;8.82;;;2.30;48.40;;;;;;5032914;28;20136;-66
2022/03/12 04:05:13;;;;;;;21.13;10.27;;;2.20;48.60;;;;;;5031184;28;20137;-65
2022/03/12 04:07:38;;;;;;;23.45;10.32;;;2.20;48.60;;;;;;5033101;28;20048;-65
2022/03/12 04:10:04;;;;;;;19.00;9.73;;;2.20;48.60;;;;;;5024839;28;20018;-64
2022/03/12 04:12:30;;;;;;;19.83;9.70;;;2.10;48.60;;;;;;5014214;28;20033;-64
2022/03/12 04:14:57;;;;;;;18.30;9.45;;;2.10;48.60;;;;;;5031752;28;20068;-65
2022/03/12 04:17:23;;;;;;;16.83;9.25;;;2.20;48.60;;;;;;5013488;28;20025;-65
2022/03/12 04:19:49;;;;;;;17.92;9.85;;;2.00;48.50;;;;;;5032017;28;20029;-65
2022/03/12 04:22:16;;;;;;;22.25;10.20;;;2.10;48.70;;;;;;5033247;28;20240;-65
2022/03/12 04:24:41;;;;;;;21.48;10.07;;;2.10;48.70;;;;;;5031541;28;20047;-64
2022/03/12 04:27:07;;;;;;;22.58;10.30;;;2.10;48.70;;;;;;5031568;28;20030;-64
2022/03/12 04:29:33;;;;;;;19.85;10.00;;;2.00;48.70;;;;;;5031020;28;20480;-64
2022/03/12 04:31:58;;;;;;;18.50;9.48;;;2.10;48.70;;;;;;5026984;28;20036;-66
2022/03/12 04:34:24;;;;;;;19.85;9.77;;;2.10;49.30;;;;;;5030765;28;20029;-65
2022/03/12 04:36:49;;;;;;;20.05;10.32;;;2.00;48.80;;;;;;5030120;28;20034;-64
2022/03/12 04:39:15;;;;;;;19.77;9.65;;;2.00;48.90;;;;;;5027247;28;20540;-64
2022/03/12 04:41:41;;;;;;;20.35;9.65;;;2.00;48.80;;;;;;5032898;28;20076;-64
2022/03/12 04:44:07;;;;;;;22.85;10.23;;;2.00;48.90;;;;;;5030775;28;20029;-64
2022/03/12 04:46:34;;;;;;;24.48;10.27;;;2.00;49.00;;;;;;5015567;28;20156;-64
2022/03/12 04:49:00;;;;;;;18.92;10.00;;;1.90;48.90;;;;;;5031712;28;20105;-65
2022/03/12 04:51:28;;;;;;;18.98;10.25;;;2.00;49.00;;;;;;5014697;28;20026;-65
2022/03/12 04:54:00;;;;;;;21.60;10.23;;;2.00;49.20;;;;;;5032391;28;20026;-65
2022/03/12 04:56:27;;;;;;;20.73;10.82;;;1.90;49.10;;;;;;5032189;28;20048;-64
2022/03/12 04:58:53;;;;;;;19.90;10.18;;;1.90;49.00;;;;;;5032399;28;20034;-64
2022/03/12 05:01:20;;;;;;;20.60;10.82;;;1.90;49.10;;;;;;5014795;28;20425;-64
2022/03/12 05:03:46;;;;;;;20.35;9.93;;;1.90;49.10;;;;;;5028262;28;20072;-65
2022/03/12 05:06:13;;;;;;;22.52;11.98;;;1.90;49.10;;;;;;5014082;28;20038;-65
2022/03/12 05:08:39;;;;;;;18.65;10.25;;;1.90;49.20;;;;;;5012382;28;20029;-65
2022/03/12 05:11:05;;;;;;;20.48;10.80;;;1.90;49.40;;;;;;5030305;28;20420;-65
2022/03/12 05:13:32;;;;;;;24.42;10.95;;;1.80;49.50;;;;;;5031456;28;20531;-65
2022/03/12 05:16:03;;;;;;;22.08;11.15;;;1.80;49.40;;;;;;5020009;28;20030;-66
2022/03/12 05:18:30;;;;;;;22.15;10.38;;;1.90;49.50;;;;;;5012612;28;20045;-65
2022/03/12 05:20:55;;;;;;;22.30;10.50;;;1.90;49.40;;;;;;5033941;28;20037;-65
2022/03/12 05:23:21;;;;;;;20.33;10.23;;;1.90;49.40;;;;;;5030996;28;20083;-65
2022/03/12 05:25:48;;;;;;;18.60;10.18;;;1.90;49.70;;;;;;5030746;28;20558;-65
2022/03/12 05:28:17;;;;;;;22.88;10.32;;;1.90;49.60;;;;;;5031727;28;20029;-65
2022/03/12 05:30:45;;;;;;;23.08;10.50;;;1.90;49.50;;;;;;5029768;28;20385;-65
2022/03/12 05:33:11;;;;;;;23.05;11.00;;;1.90;49.70;;;;;;5031668;28;20071;-65
2022/03/12 05:35:39;;;;;;;23.02;11.10;;;1.90;49.50;;;;;;5025395;28;20486;-65
2022/03/12 05:38:06;;;;;;;16.70;9.65;;;1.90;49.40;;;;;;5019004;28;20501;-65
2022/03/12 05:40:33;;;;;;;22.40;10.43;;;1.90;49.50;;;;;;5019055;28;20088;-65
2022/03/12 05:42:59;;;;;;;25.67;10.52;;;1.90;49.60;;;;;;5016422;28;20072;-65
2022/03/12 05:45:24;;;;;;;19.45;10.15;;;1.90;49.70;;;;;;5030230;28;20069;-64
2022/03/12 05:47:50;;;;;;;22.27;10.05;;;1.90;49.60;;;;;;5031395;28;20431;-64
2022/03/12 05:50:17;;;;;;;19.58;9.52;;;1.90;49.80;;;;;;5030382;28;20099;-64
2022/03/12 05:52:49;;;;;;;22.08;10.52;;;1.90;49.80;;;;;;5031145;28;20129;-65
2022/03/12 05:55:20;;;;;;;19.80;10.88;;;1.90;49.80;;;;;;5029765;28;20037;-65
2022/03/12 05:57:46;;;;;;;19.30;10.43;;;2.00;49.80;;;;;;5030908;28;20033;-64
2022/03/12 06:00:13;;;;;;;20.80;10.88;;;2.00;49.80;;;;;;5030045;28;20436;-64
2022/03/12 06:02:49;;;;;;;21.52;10.45;;;2.00;49.80;;;;;;5025491;28;20040;-64
2022/03/12 06:05:17;;;;;;;24.75;12.02;;;2.00;49.80;;;;;;5024569;28;20041;-65
2022/03/12 06:07:45;;;;;;;19.10;10.20;;;2.00;49.90;;;;;;5030768;28;20029;-65
2022/03/12 06:10:17;;;;;;;22.70;10.60;;;2.00;49.90;;;;;;5031140;28;20017;-65
2022/03/12 06:12:43;;;;;;;23.50;11.48;;;2.00;49.90;;;;;;5030915;28;20030;-65
2022/03/12 06:15:14;;;;;;;23.17;11.43;;;2.00;49.90;;;;;;5021674;28;20022;-65
2022/03/12 06:17:40;;;;;;;22.73;12.45;;;2.00;49.90;;;;;;5011383;28;20069;-65
2022/03/12 06:20:08;;;;;;;22.00;10.40;;;2.00;49.90;;;;;;5022610;28;20057;-65
2022/03/12 06:22:34;;;;;;;24.90;11.95;;;2.10;49.90;;;;;;5031049;28;20037;-65
2022/03/12 06:25:00;;;;;;;19.55;10.52;;;2.10;49.80;;;;;;5029977;28;20117;-65
2022/03/12 06:27:25;;;;;;;20.63;10.27;;;2.10;49.80;;;;;;5030968;28;20080;-64
2022/03/12 06:29:51;;;;;;;20.25;10.15;;;2.20;50.00;;;;;;5028891;28;20036;-64
2022/03/12 06:32:17;;;;;;;21.33;11.27;;;2.20;49.90;;;;;;5028226;28;20022;-64
2022/03/12 06:34:43;;;;;;;22.45;11.35;;;2.20;49.80;;;;;;5029380;28;20036;-64
2022/03/12 06:37:09;;;;;;;20.95;10.48;;;2.20;49.80;;;;;;5037172;28;20029;-65
2022/03/12 06:39:35;;;;;;;19.50;9.90;;;2.20;49.90;;;;;;5044431;28;20557;-65
2022/03/12 06:42:02;;;;;;;19.42;10.77;;;2.30;49.80;;;;;;5030958;28;20028;-65
2022/03/12 06:44:32;;;;;;;24.85;11.82;;;2.30;49.80;;;;;;5029182;28;20143;-64
2022/03/12 06:46:59;;;;;;;22.15;11.95;;;2.40;49.90;;;;;;5030643;28;20038;-65
2022/03/12 06:49:24;;;;;;;22.38;10.98;;;2.40;49.90;;;;;;5023529;28;20493;-65
2022/03/12 06:51:50;;;;;;;24.73;10.50;;;2.40;50.00;;;;;;5031243;28;20030;-65
2022/03/12 06:54:16;;;;;;;21.33;11.23;;;2.50;49.90;;;;;;5022374;28;20061;-66
2022/03/12 06:56:41;;;;;;;18.42;10.32;;;2.50;49.80;;;;;;5020191;28;20067;-65
2022/03/12 06:59:07;;;;;;;22.13;11.60;;;2.50;49.80;;;;;;5027317;28;20037;-66
2022/03/12 07:01:32;;;;;;;26.63;11.07;;;2.60;49.80;;;;;;5032329;28;20034;-66
2022/03/12 07:03:58;;;;;;;19.02;10.18;;;2.70;49.80;;;;;;5022855;28;20057;-66
2022/03/12 07:06:23;;;;;;;18.38;9.82;;;2.70;49.90;;;;;;5029375;28;20524;-67
2022/03/12 07:08:50;;;;;;;19.02;10.32;;;2.80;49.80;;;;;;5034698;28;20129;-66
2022/03/12 07:11:16;;;;;;;19.00;9.30;;;2.80;49.70;;;;;;5026688;28;20029;-65
2022/03/12 07:13:42;;;;;;;23.00;11.02;;;2.90;49.70;;;;;;5021810;28;20026;-67
2022/03/12 07:16:08;;;;;;;19.83;10.35;;;2.90;49.60;;;;;;5023863;28;20105;-66
2022/03/12 07:18:34;;;;;;;17.92;10.20;;;2.90;49.40;;;;;;5029151;28;20105;-66
2022/03/12 07:20:59;;;;;;;19.17;10.07;;;3.00;49.50;;;;;;5034181;28;20025;-66
2022/03/12 07:23:25;;;;;;;18.00;9.15;;;3.00;49.50;;;;;;5035772;28;20429;-66
2022/03/12 07:25:52;;;;;;;20.20;10.63;;;3.10;49.40;;;;;;5029814;28;20084;-64
2022/03/12 07:28:19;;;;;;;21.25;10.65;;;3.20;49.40;;;;;;5024560;28;20478;-66
2022/03/12 07:30:45;;;;;;;21.45;10.20;;;3.20;49.30;;;;;;5023942;28;20525;-66
2022/03/12 07:33:10;;;;;;;17.50;9.98;;;3.40;49.30;;;;;;5036933;28;20112;-66
2022/03/12 07:35:37;;;;;;;21.05;10.15;;;3.40;49.20;;;;;;5034976;28;20029;-65
2022/03/12 07:38:03;;;;;;;25.60;10.35;;;3.40;49.10;;;;;;5029632;28;20330;-66
2022/03/12 07:40:29;;;;;;;18.35;9.82;;;3.50;49.10;;;;;;5031076;28;20057;-66
2022/03/12 07:42:55;;;;;;;18.25;10.25;;;3.60;49.10;;;;;;5032464;28;20056;-65
2022/03/12 07:45:21;;;;;;;17.95;10.07;;;3.70;48.80;;;;;;5032045;28;20043;-66
2022/03/12 07:47:47;;;;;;;16.73;9.05;;;3.70;48.30;;;;;;5026581;28;20463;-66
2022/03/12 07:50:13;;;;;;;17.17;9.68;;;3.80;48.60;;;;;;5027630;28;20033;-66
2022/03/12 07:52:40;;;;;;;16.75;9.63;;;3.80;48.30;;;;;;5032829;28;20037;-66
2022/03/12 07:55:09;;;;;;;19.30;9.25;;;3.90;48.30;;;;;;5028423;28;20033;-66
2022/03/12 07:57:35;;;;;;;18.83;9.43;;;4.00;48.00;;;;;;5031545;28;20032;-67
2022/03/12 08:00:04;;;;;;;16.55;9.32;;;4.10;47.70;;;;;;5022252;28;20473;-66
2022/03/12 08:02:29;;;;;;;15.70;8.20;;;4.20;47.70;;;;;;5023028;28;20044;-66
2022/03/12 08:04:55;;;;;;;17.83;8.85;;;4.20;47.30;;;;;;5025063;28;20042;-66
2022/03/12 08:07:21;;;;;;;17.48;8.50;;;4.30;47.20;;;;;;5031982;28;20026;-66
2022/03/12 08:09:46;;;;;;;15.27;8.50;;;4.40;47.00;;;;;;5024448;28;20025;-66
2022/03/12 08:12:13;;;;;;;14.43;8.38;;;4.50;47.00;;;;;;5029443;28;20512;-66
2022/03/12 08:14:39;;;;;;;17.02;9.23;;;4.50;47.10;;;;;;5029693;28;20052;-66
2022/03/12 08:17:05;;;;;;;15.63;8.90;;;4.60;46.60;;;;;;5032115;28;20033;-66
2022/03/12 08:19:32;;;;;;;15.73;7.78;;;4.70;45.80;;;;;;5031026;28;20080;-66
2022/03/12 08:21:59;;;;;;;12.90;7.70;;;4.70;46.10;;;;;;5029182;28;20200;-66
2022/03/12 08:24:24;;;;;;;16.05;8.07;;;4.80;46.50;;;;;;5029987;28;20034;-66
2022/03/12 08:26:50;;;;;;;15.80;8.65;;;4.90;46.00;;;;;;5026801;28;20511;-66
2022/03/12 08:29:18;;;;;;;19.05;8.98;;;5.00;45.70;;;;;;5023357;28;20115;-67
2022/03/12 08:31:44;;;;;;;15.18;8.57;;;5.00;45.70;;;;;;5031538;28;20029;-66
2022/03/12 08:34:11;;;;;;;15.73;8.32;;;5.10;45.50;;;;;;5028997;28;20661;-66
2022/03/12 08:36:36;;;;;;;13.23;7.60;;;5.10;44.90;;;;;;5026435;28;20416;-67
2022/03/12 08:39:03;;;;;;;13.75;7.05;;;5.20;44.70;;;;;;5030798;28;20037;-65
2022/03/12 08:41:29;;;;;;;14.55;8.02;;;5.30;44.70;;;;;;5032848;28;20447;-66
2022/03/12 08:43:54;;;;;;;18.10;9.32;;;5.30;45.20;;;;;;5032628;28;20113;-65
2022/03/12 08:46:20;;;;;;;16.27;7.18;;;5.40;45.00;;;;;;5029556;28;20416;-66
2022/03/12 08:48:45;;;;;;;17.65;7.82;;;5.50;45.00;;;;;;5036313;28;20047;-65
2022/03/12 08:51:11;;;;;;;12.70;7.40;;;5.60;44.50;;;;;;5030097;28;20044;-66
2022/03/12 08:53:37;;;;;;;15.07;7.80;;;5.70;45.00;;;;;;5028462;28;20486;-66
2022/03/12 08:56:04;;;;;;;14.57;8.85;;;5.80;45.30;;;;;;5037378;28;20029;-66
2022/03/12 08:58:31;;;;;;;14.27;8.02;;;5.90;45.20;;;;;;5028251;28;20017;-66
2022/03/12 09:01:00;;;;;;;15.25;7.40;;;6.00;45.00;;;;;;5026271;28;20045;-65
2022/03/12 09:03:26;;;;;;;14.35;8.55;;;6.10;44.80;;;;;;5029633;28;20148;-65
2022/03/12 09:05:53;;;;;;;15.25;8.02;;;6.10;45.10;;;;;;5021904;28;20053;-65
2022/03/12 09:08:19;;;;;;;14.80;7.25;;;6.20;43.60;;;;;;5031088;28;20025;-65
2022/03/12 09:10:45;;;;;;;12.95;7.20;;;6.20;43.80;;;;;;5023831;28;20044;-65
2022/03/12 09:13:12;;;;;;;14.20;6.93;;;6.30;43.60;;;;;;5022924;28;20026;-65
2022/03/12 09:15:39;;;;;;;13.65;7.75;;;6.40;43.20;;;;;;5024010;28;20028;-65
2022/03/12 09:18:05;;;;;;;15.52;7.55;;;6.40;43.20;;;;;;5012954;28;20076;-65
2022/03/12 09:20:31;;;;;;;12.48;6.40;;;6.50;42.20;;;;;;5029014;28;20034;-65
2022/03/12 09:22:56;;;;;;;10.07;6.60;;;6.60;43.00;;;;;;5028536;28;20025;-65
2022/03/12 09:25:22;;;;;;;16.35;6.80;;;6.60;42.90;;;;;;5033239;28;20029;-65
2022/03/12 09:27:48;;;;;;;15.13;7.32;;;6.70;42.90;;;;;;5029596;28;20087;-65
2022/03/12 09:30:15;;;;;;;11.10;6.78;;;6.80;42.90;;;;;;5025151;28;20112;-66
2022/03/12 09:32:41;;;;;;;13.55;6.88;;;6.90;43.10;;;;;;5015125;28;20030;-65
2022/03/12 09:35:07;;;;;;;11.82;6.90;;;6.90;43.00;;;;;;5028700;28;20330;-65
2022/03/12 09:37:34;;;;;;;12.60;6.65;;;7.00;42.80;;;;;;5019644;28;20060;-66
2022/03/12 09:40:00;;;;;;;10.40;5.85;;;7.10;41.70;;;;;;5017113;28;20030;-66
2022/03/12 09:42:30;;;;;;;10.50;6.13;;;7.10;41.90;;;;;;5025518;28;20043;-66
2022/03/12 09:44:57;;;;;;;11.18;5.88;;;7.20;41.80;;;;;;5029567;28;20041;-66
2022/03/12 09:47:22;;;;;;;12.55;6.00;;;7.30;41.80;;;;;;5030067;28;20033;-66
2022/03/12 09:49:48;;;;;;;10.38;6.30;;;7.40;41.60;;;;;;5025906;28;20029;-65
2022/03/12 09:52:14;;;;;;;12.25;6.07;;;7.40;41.70;;;;;;5030034;28;20044;-65
2022/03/12 09:54:39;;;;;;;9.98;6.00;;;7.50;42.10;;;;;;5025625;28;20061;-65
2022/03/12 09:57:05;;;;;;;11.45;5.82;;;7.60;41.20;;;;;;5021882;28;20157;-64
2022/03/12 09:59:30;;;;;;;10.48;6.28;;;7.70;41.30;;;;;;5014530;28;20025;-65
2022/03/12 10:01:56;;;;;;;8.27;5.28;;;7.70;40.50;;;;;;5025096;28;20026;-65
2022/03/12 10:04:22;;;;;;;9.65;5.40;;;7.70;39.40;;;;;;5043715;28;20107;-65
2022/03/12 10:06:48;;;;;;;11.07;6.10;;;7.80;40.00;;;;;;5028460;28;20042;-65
2022/03/12 10:09:14;;;;;;;10.75;5.57;;;7.80;39.50;;;;;;5027774;28;20416;-65
2022/03/12 10:11:41;;;;;;;8.65;5.43;;;7.80;39.40;;;;;;5030168;28;20033;-65
2022/03/12 10:14:08;;;;;;;9.93;5.20;;;7.90;39.10;;;;;;5012019;28;20030;-65
2022/03/12 10:16:34;;;;;;;10.40;5.68;;;8.00;39.20;;;;;;5027296;28;20061;-65
2022/03/12 10:18:59;;;;;;;11.50;5.97;;;8.00;39.10;;;;;;5029784;28;20512;-65
2022/03/12 10:21:25;;;;;;;10.10;5.88;;;8.10;38.70;;;;;;5024562;28;20039;-65
2022/03/12 10:23:51;;;;;;;10.73;5.18;;;8.10;38.90;;;;;;5026549;28;20040;-65
2022/03/12 10:26:17;;;;;;;11.65;5.68;;;8.20;39.20;;;;;;5028539;28;20448;-64
2022/03/12 10:28:43;;;;;;;9.32;6.05;;;8.30;39.60;;;;;;5029466;28;20031;-65
2022/03/12 10:31:11;;;;;;;8.55;5.22;;;8.30;39.10;;;;;;5030492;28;20044;-65
2022/03/12 10:33:37;;;;;;;8.85;5.32;;;8.40;38.90;;;;;;5023777;28;20033;-65
2022/03/12 10:36:14;;;;;;;9.52;5.82;;;8.50;39.20;;;;;;5011253;28;20017;-65
2022/03/12 10:38:48;;;;;;;9.70;5.10;;;8.50;38.40;;;;;;5013552;28;20136;-65
2022/03/12 10:41:14;;;;;;;9.63;5.30;;;8.60;38.10;;;;;;5028644;28;20041;-65
2022/03/12 10:43:49;;;;;;;9.02;5.32;;;8.60;38.30;;;;;;5029333;28;20040;-65
2022/03/12 10:46:23;;;;;;;7.38;4.90;;;8.80;38.90;;;;;;5022234;28;20125;-65
2022/03/12 10:48:57;;;;;;;9.07;5.40;;;8.90;38.70;;;;;;5022468;28;20084;-64
2022/03/12 10:51:29;;;;;;;9.25;5.20;;;8.90;38.10;;;;;;5015870;28;20061;-65
2022/03/12 10:54:15;;;;;;;8.60;5.32;;;9.00;38.10;;;;;;5029793;28;20025;-65
2022/03/12 10:56:43;;;;;;;10.25;6.20;;;9.00;38.50;;;;;;5020514;28;20486;-65
2022/03/12 10:59:13;;;;;;;11.43;5.28;;;9.10;37.80;;;;;;5027363;28;20032;-65
2022/03/12 11:01:49;;;;;;;9.48;5.38;;;9.20;37.70;;;;;;5030109;28;20022;-65
2022/03/12 11:04:34;;;;;;;9.98;6.00;;;9.30;36.80;;;;;;5029753;28;20060;-64
2022/03/12 11:07:20;;;;;;;10.10;5.20;;;9.30;37.10;;;;;;5030603;28;20045;-64
2022/03/12 11:09:47;;;;;;;8.68;4.75;;;9.30;36.40;;;;;;5030179;28;20087;-66
2022/03/12 11:12:37;;;;;;;9.18;5.35;;;9.40;36.70;;;;;;5016768;28;20026;-66
2022/03/12 11:15:08;;;;;;;8.48;4.82;;;9.50;37.00;;;;;;5027601;28;20041;-64
2022/03/12 11:17:43;;;;;;;9.40;4.75;;;9.60;37.60;;;;;;5027278;28;20144;-65
2022/03/12 11:20:24;;;;;;;8.05;4.65;;;9.70;36.80;;;;;;5023370;28;20035;-65
2022/03/12 11:23:04;;;;;;;9.40;5.18;;;9.70;36.50;;;;;;5028026;28;20021;-65
2022/03/12 11:25:30;;;;;;;11.32;5.03;;;9.70;36.00;;;;;;5030779;28;20041;-65
2022/03/12 11:28:00;;;;;;;9.07;4.60;;;9.80;36.50;;;;;;5029034;28;20040;-65
2022/03/12 11:30:30;;;;;;;10.32;5.30;;;9.80;36.40;;;;;;5029898;28;20021;-65
2022/03/12 11:33:05;;;;;;;9.52;4.63;;;9.90;36.00;;;;;;5022238;28;20136;-65
2022/03/12 11:35:34;;;;;;;;;;;10.00;36.10;;;;;;5011127;28;20029;-65
2022/03/12 11:38:11;;;;;;;11.15;4.93;;;10.00;37.10;;;;;;5010954;28;19917;-65
2022/03/12 11:40:42;;;;;;;8.60;5.15;;;10.00;36.00;;;;;;5013777;28;20029;-65
2022/03/12 11:43:26;;;;;;;10.93;5.00;;;10.10;35.90;;;;;;5022556;28;20129;-64
2022/03/12 11:45:54;;;;;;;7.10;4.78;;;10.20;35.30;;;;;;5028156;28;20080;-64
2022/03/12 11:48:20;;;;;;;8.70;4.95;;;10.20;35.20;;;;;;5033013;28;20026;-64
2022/03/12 11:50:45;;;;;;;6.68;4.38;;;10.30;35.50;;;;;;5032138;28;20523;-64
2022/03/12 11:53:16;;;;;;;7.93;5.00;;;10.40;35.50;;;;;;5033456;28;20022;-65
2022/03/12 11:55:42;;;;;;;8.43;5.45;;;10.40;35.10;;;;;;5019097;28;20179;-65
2022/03/12 11:58:07;;;;;;;8.55;4.80;;;10.40;34.00;;;;;;5033504;28;20022;-65
2022/03/12 12:00:33;;;;;;;7.93;5.35;;;10.50;35.00;;;;;;5028294;28;20025;-65
2022/03/12 12:02:59;;;;;;;7.80;4.70;;;10.50;34.50;;;;;;5033365;28;20067;-64
2022/03/12 12:05:27;;;;;;;7.88;4.25;;;10.70;34.70;;;;;;5032252;28;20481;-64
2022/03/12 12:07:55;;;;;;;7.32;4.38;;;10.60;33.50;;;;;;5033465;28;20455;-65
2022/03/12 12:10:30;;;;;;;9.25;4.95;;;10.60;33.80;;;;;;5023646;28;20033;-65
2022/03/12 12:12:58;;;;;;;8.88;5.35;;;10.70;34.40;;;;;;5018344;28;20033;-64
2022/03/12 12:15:34;;;;;;;6.40;4.50;;;10.70;34.20;;;;;;5023297;28;20040;-65
2022/03/12 12:18:02;;;;;;;7.15;4.25;;;10.80;34.20;;;;;;5030813;28;20060;-65
2022/03/12 12:20:29;;;;;;;8.40;4.53;;;10.80;34.80;;;;;;5020564;28;20037;-65
2022/03/12 12:22:56;;;;;;;13.60;5.15;;;10.90;35.00;;;;;;5028132;28;20042;-66
2022/03/12 12:25:22;;;;;;;6.35;4.47;;;10.90;35.10;;;;;;5022710;28;20033;-66
2022/03/12 12:27:52;;;;;;;7.93;4.40;;;11.00;34.50;;;;;;5017535;28;20052;-66
2022/03/12 12:30:37;;;;;;;9.57;4.45;;;11.00;34.20;;;;;;5019130;28;20014;-66
2022/03/12 12:33:20;;;;;;;6.50;4.07;;;11.10;34.00;;;;;;5029912;28;20418;-66
2022/03/12 12:35:48;;;;;;;8.10;4.85;;;11.10;33.50;;;;;;5025924;28;20033;-66
2022/03/12 12:38:18;;;;;;;7.00;4.32;;;11.20;33.70;;;;;;5032061;28;20053;-66
2022/03/12 12:40:49;;;;;;;7.75;4.30;;;11.20;33.70;;;;;;5026339;28;20083;-66
2022/03/12 12:43:23;;;;;;;9.45;4.35;;;11.20;33.80;;;;;;5017045;28;20033;-66
2022/03/12 12:45:51;;;;;;;6.72;4.30;;;11.20;34.00;;;;;;5020281;28;20069;-66
2022/03/12 12:48:19;;;;;;;8.23;4.50;;;11.20;33.80;;;;;;5012905;28;20036;-66